Time;durP1;ratioP1;P1;durP2;ratioP2;P2;SDS_P1;SDS_P2;PMS_P1;PMS_P2;Temp;Humidity;BMP_temperature;BMP_pressure;BME280_temperature;BME280_humidity;BME280_pressure;Samples;Min_cycle;Max_cycle;Signal;HPM_P1;HPM_P2
2023/03/09 00:00:55;;;;;;;1.40;1.30;;;;;;;5.15;100.00;94816.88;5076237;28;20207;-67
2023/03/09 00:03:23;;;;;;;1.43;1.43;;;;;;;5.19;100.00;94812.00;5068992;28;20406;-67
2023/03/09 00:05:56;;;;;;;1.67;1.67;;;;;;;5.13;100.00;94802.31;5058738;28;20279;-67
2023/03/09 00:08:26;;;;;;;1.70;1.60;;;;;;;5.12;100.00;94806.78;5038854;28;20442;-66
2023/03/09 00:10:54;;;;;;;2.20;2.10;;;;;;;5.10;100.00;94789.63;5056313;28;20557;-68
2023/03/09 00:13:22;;;;;;;1.43;1.43;;;;;;;5.07;100.00;94793.47;5014551;28;21407;-67
2023/03/09 00:15:50;;;;;;;1.90;1.80;;;;;;;5.05;100.00;94798.13;5069483;28;20291;-68
2023/03/09 00:18:18;;;;;;;1.80;1.70;;;;;;;4.99;100.00;94776.16;5071906;28;20202;-68
2023/03/09 00:20:46;;;;;;;2.10;2.00;;;;;;;4.98;100.00;94784.22;5058118;28;20831;-67
2023/03/09 00:23:17;;;;;;;1.73;1.63;;;;;;;4.99;100.00;94780.56;5064496;28;20875;-69
2023/03/09 00:25:47;;;;;;;2.60;1.83;;;;;;;4.96;100.00;94791.50;5045561;28;20634;-67
2023/03/09 00:28:14;;;;;;;1.83;1.73;;;;;;;4.95;100.00;94785.44;5048851;28;20210;-68
2023/03/09 00:30:42;;;;;;;2.07;1.97;;;;;;;4.98;100.00;94786.84;5020671;28;20213;-67
2023/03/09 00:33:10;;;;;;;1.80;1.70;;;;;;;5.00;100.00;94792.69;5072973;28;20739;-67
2023/03/09 00:35:37;;;;;;;1.93;1.83;;;;;;;4.99;100.00;94781.41;5057846;28;20308;-67
2023/03/09 00:38:05;;;;;;;1.93;1.83;;;;;;;4.99;100.00;94775.31;5068465;28;20205;-67
2023/03/09 00:40:32;;;;;;;2.20;2.00;;;;;;;4.98;100.00;94771.09;5047363;28;20808;-68
2023/03/09 00:43:01;;;;;;;1.80;1.70;;;;;;;4.98;100.00;94765.84;5060987;28;20206;-67
2023/03/09 00:45:29;;;;;;;1.77;1.73;;;;;;;5.00;100.00;94772.50;5013328;28;20218;-67
2023/03/09 00:47:56;;;;;;;2.20;2.10;;;;;;;4.99;100.00;94763.03;5073057;28;20206;-68
2023/03/09 00:50:24;;;;;;;1.97;1.90;;;;;;;4.98;100.00;94752.72;5056216;28;20439;-69
2023/03/09 00:52:52;;;;;;;2.10;2.00;;;;;;;4.99;100.00;94749.91;5066775;28;20594;-68
2023/03/09 00:55:19;;;;;;;5.93;2.20;;;;;;;4.97;100.00;94728.31;5047586;28;20238;-68
2023/03/09 00:57:47;;;;;;;1.90;1.70;;;;;;;5.03;100.00;94742.41;5053970;28;20289;-67
2023/03/09 01:00:16;;;;;;;2.10;2.00;;;;;;;5.05;100.00;94727.25;5020711;28;20249;-68
2023/03/09 01:02:44;;;;;;;2.13;2.03;;;;;;;5.07;100.00;94719.97;5070373;28;20525;-67
2023/03/09 01:05:11;;;;;;;2.10;2.00;;;;;;;5.12;100.00;94722.78;5067236;28;20225;-69
2023/03/09 01:07:40;;;;;;;2.30;2.20;;;;;;;5.18;100.00;94719.31;5053368;28;20604;-68
2023/03/09 01:10:10;;;;;;;3.40;3.10;;;;;;;5.22;100.00;94696.06;5072268;28;20202;-68
2023/03/09 01:12:39;;;;;;;2.93;2.73;;;;;;;5.27;100.00;94688.34;5041879;28;20392;-67
2023/03/09 01:15:07;;;;;;;3.23;3.03;;;;;;;5.29;100.00;94685.53;5000729;28;20439;-68
2023/03/09 01:17:36;;;;;;;2.97;2.77;;;;;;;5.22;100.00;94675.06;5069145;28;20218;-68
2023/03/09 01:20:05;;;;;;;3.40;3.07;;;;;;;5.26;100.00;94688.56;5066745;28;20230;-67
2023/03/09 01:22:33;;;;;;;3.37;3.17;;;;;;;5.39;100.00;94695.56;5051131;28;20210;-68
2023/03/09 01:25:00;;;;;;;4.20;3.80;;;;;;;5.45;100.00;94686.84;5075023;28;20717;-67
2023/03/09 01:27:28;;;;;;;4.20;3.80;;;;;;;5.44;100.00;94672.88;5045408;28;20307;-67
2023/03/09 01:29:55;;;;;;;3.90;3.67;;;;;;;5.45;100.00;94665.81;5001502;28;20698;-67
2023/03/09 01:32:25;;;;;;;4.50;4.20;;;;;;;5.54;100.00;94653.25;5062961;28;20202;-68
2023/03/09 01:34:54;;;;;;;4.03;3.73;;;;;;;5.52;100.00;94650.81;5070689;28;20199;-69
2023/03/09 01:37:22;;;;;;;4.23;3.93;;;;;;;5.53;100.00;94654.25;5050796;28;20472;-67
2023/03/09 01:39:49;;;;;;;4.33;4.03;;;;;;;5.62;100.00;94647.72;5069346;28;20198;-68
2023/03/09 01:42:17;;;;;;;4.07;3.80;;;;;;;5.66;100.00;94656.75;5067985;28;20215;-68
2023/03/09 01:44:45;;;;;;;4.63;4.33;;;;;;;5.76;100.00;94640.53;5028153;28;20207;-68
2023/03/09 01:47:14;;;;;;;4.53;4.23;;;;;;;5.78;100.00;94626.13;5015880;28;20237;-68
2023/03/09 01:49:44;;;;;;;4.53;4.23;;;;;;;5.83;100.00;94633.38;5068543;28;20268;-69
2023/03/09 01:52:17;;;;;;;4.60;4.20;;;;;;;5.80;100.00;94620.66;5061269;28;20199;-69
2023/03/09 01:54:48;;;;;;;5.03;4.50;;;;;;;5.83;100.00;94622.03;5068194;28;20198;-68
2023/03/09 01:57:20;;;;;;;4.33;4.03;;;;;;;5.87;100.00;94616.16;5065763;28;20241;-69
2023/03/09 01:59:50;;;;;;;5.13;4.63;;;;;;;5.94;100.00;94609.00;5030100;28;20206;-69
2023/03/09 02:02:18;;;;;;;5.17;4.77;;;;;;;6.02;100.00;94605.31;5013276;28;20463;-69
2023/03/09 02:04:47;;;;;;;5.90;5.40;;;;;;;6.02;100.00;94593.97;5075943;28;20476;-68
2023/03/09 02:07:19;;;;;;;4.77;4.37;;;;;;;6.00;100.00;94596.81;5060220;28;20195;-69
2023/03/09 02:09:49;;;;;;;5.53;5.07;;;;;;;6.01;100.00;94593.19;5053169;28;20217;-69
2023/03/09 02:12:20;;;;;;;5.90;5.40;;;;;;;6.00;100.00;94591.56;5067218;28;20206;-70
2023/03/09 02:14:47;;;;;;;5.83;5.33;;;;;;;6.05;100.00;94591.72;5053185;28;20581;-68
2023/03/09 02:17:16;;;;;;;5.40;5.00;;;;;;;6.03;100.00;94588.50;5016564;28;20721;-69
2023/03/09 02:19:53;;;;;;;5.37;4.97;;;;;;;6.06;100.00;94592.50;5068365;28;20554;-69
2023/03/09 02:22:22;;;;;;;5.80;5.40;;;;;;;6.13;100.00;94597.72;5062537;28;20202;-68
2023/03/09 02:24:56;;;;;;;6.37;5.77;;;;;;;6.13;100.00;94587.19;5054461;28;20634;-69
2023/03/09 02:27:27;;;;;;;6.97;6.47;;;;;;;6.19;100.00;94579.25;5065694;28;20319;-68
2023/03/09 02:29:55;;;;;;;6.57;6.07;;;;;;;6.36;100.00;94594.41;5054226;28;20213;-68
2023/03/09 02:32:23;;;;;;;6.40;5.87;;;;;;;6.54;100.00;94601.47;5012047;28;20312;-70
2023/03/09 02:34:51;;;;;;;5.07;4.60;;;;;;;6.84;100.00;94579.63;5068212;28;20194;-68
2023/03/09 02:37:24;;;;;;;4.97;4.33;;;;;;;6.96;100.00;94577.03;5066882;28;20605;-70
2023/03/09 02:39:54;;;;;;;5.10;4.60;;;;;;;6.81;100.00;94570.31;5051398;28;20211;-66
2023/03/09 02:42:22;;;;;;;3.60;3.30;;;;;;;6.93;100.00;94641.44;5069263;28;20390;-70
2023/03/09 02:44:51;;;;;;;2.50;2.30;;;;;;;7.04;100.00;94626.72;5072282;28;20209;-70
2023/03/09 02:47:22;;;;;;;1.60;1.53;;;;;;;6.95;100.00;94657.81;4997026;28;20631;-67
2023/03/09 02:49:50;;;;;;;1.90;1.33;;;;;;;6.95;100.00;94643.88;5065731;28;20198;-69
2023/03/09 02:52:18;;;;;;;1.30;1.30;;;;;;;6.97;100.00;94633.09;5065174;28;20226;-69
2023/03/09 02:54:45;;;;;;;0.83;0.83;;;;;;;6.92;100.00;94608.25;5061156;28;20297;-70
2023/03/09 02:57:13;;;;;;;0.80;0.80;;;;;;;6.93;100.00;94612.47;5065254;28;20222;-70
2023/03/09 02:59:41;;;;;;;1.03;1.03;;;;;;;6.81;100.00;94628.22;5071179;28;20342;-70
2023/03/09 03:02:10;;;;;;;0.73;0.73;;;;;;;6.65;100.00;94644.66;4997245;28;20534;-70
2023/03/09 03:04:38;;;;;;;0.73;0.73;;;;;;;6.56;100.00;94641.50;5067686;28;20205;-69
2023/03/09 03:07:06;;;;;;;1.00;1.00;;;;;;;6.46;100.00;94638.59;5063116;28;20234;-68
2023/03/09 03:09:33;;;;;;;1.17;1.13;;;;;;;6.44;100.00;94644.09;5063485;28;20216;-67
2023/03/09 03:12:01;;;;;;;1.40;1.30;;;;;;;6.42;100.00;94651.38;5050884;28;20726;-69
2023/03/09 03:14:28;;;;;;;1.17;1.07;;;;;;;6.45;100.00;94666.75;5069738;28;20198;-67
2023/03/09 03:16:56;;;;;;;0.60;0.60;;;;;;;6.39;100.00;94646.56;5046335;28;20397;-68
2023/03/09 03:19:26;;;;;;;1.13;0.80;;;;;;;6.41;100.00;94657.66;5018349;28;20214;-69
2023/03/09 03:21:54;;;;;;;1.10;1.10;;;;;;;6.43;100.00;94654.81;5050168;28;20277;-69
2023/03/09 03:24:21;;;;;;;0.87;0.83;;;;;;;6.37;100.00;94652.06;5067773;28;20205;-68
2023/03/09 03:26:49;;;;;;;1.20;1.10;;;;;;;6.40;100.00;94657.91;5054355;28;20218;-69
2023/03/09 03:29:17;;;;;;;0.90;0.90;;;;;;;6.41;100.00;94655.03;5069741;28;20229;-69
2023/03/09 03:31:44;;;;;;;0.90;0.90;;;;;;;6.49;100.00;94661.84;5065129;28;20202;-69
2023/03/09 03:34:12;;;;;;;1.30;1.20;;;;;;;6.55;100.00;94654.91;4999758;28;20217;-69
2023/03/09 03:36:42;;;;;;;1.00;1.00;;;;;;;6.50;100.00;94664.25;5066227;28;20313;-70
2023/03/09 03:39:09;;;;;;;1.33;1.23;;;;;;;6.49;100.00;94657.41;5068120;28;20218;-70
2023/03/09 03:41:37;;;;;;;1.13;1.13;;;;;;;6.61;100.00;94675.84;5071806;28;20203;-69
2023/03/09 03:44:05;;;;;;;1.67;1.57;;;;;;;6.77;100.00;94674.44;5056441;28;20203;-70
2023/03/09 03:46:32;;;;;;;1.13;1.00;;;;;;;6.81;100.00;94666.91;5068596;28;20319;-70
2023/03/09 03:49:01;;;;;;;1.00;1.00;;;;;;;6.88;100.00;94665.00;5046792;28;20241;-69
2023/03/09 03:51:28;;;;;;;1.40;1.30;;;;;;;6.83;100.00;94672.75;5034853;28;20207;-68
2023/03/09 03:53:58;;;;;;;0.93;0.93;;;;;;;6.78;100.00;94678.69;5067216;28;20202;-67
2023/03/09 03:56:25;;;;;;;0.70;0.70;;;;;;;6.72;100.00;94670.88;5064564;28;20232;-68
2023/03/09 03:58:53;;;;;;;1.30;1.20;;;;;;;6.78;100.00;94680.53;5053540;28;20724;-67
2023/03/09 04:01:21;;;;;;;1.43;1.10;;;;;;;6.68;100.00;94678.41;5068385;28;20211;-69
2023/03/09 04:03:48;;;;;;;0.67;0.67;;;;;;;6.76;100.00;94678.09;5050102;28;20544;-71
2023/03/09 04:06:16;;;;;;;1.13;1.10;;;;;;;6.82;100.00;94676.41;5010437;28;20412;-70
2023/03/09 04:08:44;;;;;;;1.10;1.00;;;;;;;6.76;100.00;94667.56;5071968;28;20241;-68
2023/03/09 04:11:13;;;;;;;0.70;0.70;;;;;;;6.84;100.00;94679.63;5068878;28;20202;-68
2023/03/09 04:13:42;;;;;;;0.87;0.87;;;;;;;6.88;100.00;94680.78;5070282;28;20206;-67
2023/03/09 04:16:10;;;;;;;0.97;0.90;;;;;;;6.85;100.00;94677.81;5058804;28;20221;-69
2023/03/09 04:18:38;;;;;;;0.80;0.80;;;;;;;6.81;100.00;94665.06;5072093;28;20222;-69
2023/03/09 04:21:05;;;;;;;1.23;0.90;;;;;;;6.99;100.00;94662.63;4997666;28;20217;-70
2023/03/09 04:23:33;;;;;;;0.80;0.80;;;;;;;6.85;100.00;94657.56;5072733;28;20512;-69
2023/03/09 04:26:04;;;;;;;0.73;0.73;;;;;;;6.76;100.00;94666.78;5068460;28;20222;-70
2023/03/09 04:28:33;;;;;;;0.83;0.70;;;;;;;6.80;100.00;94673.22;5069323;28;20199;-69
2023/03/09 04:31:01;;;;;;;0.80;0.80;;;;;;;6.79;100.00;94667.13;5054708;28;20555;-69
2023/03/09 04:33:28;;;;;;;0.70;0.70;;;;;;;6.87;100.00;94670.50;5071728;28;20293;-67
2023/03/09 04:35:56;;;;;;;0.70;0.70;;;;;;;6.81;100.00;94664.28;5053218;28;20576;-69
2023/03/09 04:38:24;;;;;;;0.70;0.70;;;;;;;6.81;100.00;94667.72;5039466;28;20283;-71
2023/03/09 04:40:51;;;;;;;0.70;0.70;;;;;;;6.70;100.00;94679.00;5076397;28;20203;-70
2023/03/09 04:43:19;;;;;;;1.33;1.07;;;;;;;6.68;100.00;94680.25;5069339;28;20858;-71
2023/03/09 04:45:48;;;;;;;0.73;0.73;;;;;;;6.66;100.00;94683.09;5059479;28;20241;-73
2023/03/09 04:48:16;;;;;;;0.80;0.80;;;;;;;6.65;100.00;94681.47;5068462;28;20209;-74
2023/03/09 04:50:44;;;;;;;1.70;0.63;;;;;;;6.64;100.00;94687.78;5050409;28;20199;-74
2023/03/09 04:53:12;;;;;;;0.67;0.67;;;;;;;6.62;100.00;94697.72;5028768;28;20210;-72
2023/03/09 04:55:40;;;;;;;0.70;0.70;;;;;;;6.64;100.00;94693.03;5072918;28;20248;-70
2023/03/09 04:58:07;;;;;;;0.83;0.83;;;;;;;6.59;100.00;94698.94;5069260;28;20839;-72
2023/03/09 05:00:35;;;;;;;0.90;0.90;;;;;;;6.48;100.00;94697.88;5053763;28;20546;-73
2023/03/09 05:03:04;;;;;;;1.03;0.93;;;;;;;6.54;100.00;94713.81;5071129;28;20443;-71
2023/03/09 05:05:32;;;;;;;1.17;0.97;;;;;;;6.42;100.00;94716.34;5046459;28;20860;-73
2023/03/09 05:07:59;;;;;;;0.83;0.70;;;;;;;6.43;100.00;94721.38;5015775;28;20216;-72
2023/03/09 05:10:27;;;;;;;0.60;0.60;;;;;;;6.41;100.00;94727.88;5072900;28;20326;-70
2023/03/09 05:12:54;;;;;;;0.60;0.60;;;;;;;6.33;100.00;94721.91;5072886;28;20203;-71
2023/03/09 05:15:22;;;;;;;1.50;0.80;;;;;;;6.24;100.00;94731.06;5051240;28;20222;-71
2023/03/09 05:17:50;;;;;;;1.40;0.60;;;;;;;6.22;100.00;94727.84;5069911;28;20226;-71
2023/03/09 05:20:19;;;;;;;0.90;0.87;;;;;;;6.21;100.00;94734.13;5071609;28;20202;-69
2023/03/09 05:22:46;;;;;;;0.83;0.83;;;;;;;6.21;100.00;94740.22;5007867;28;21533;-72
2023/03/09 05:25:14;;;;;;;0.87;0.87;;;;;;;6.21;100.00;94745.47;5069859;28;20686;-73
2023/03/09 05:27:42;;;;;;;0.77;0.77;;;;;;;6.24;100.00;94749.47;5072257;28;20202;-71
2023/03/09 05:30:11;;;;;;;1.40;0.70;;;;;;;6.17;100.00;94757.44;5068756;28;20666;-73
2023/03/09 05:32:39;;;;;;;0.60;0.60;;;;;;;6.18;100.00;94766.13;5056002;28;20768;-73
2023/03/09 05:35:07;;;;;;;0.57;0.57;;;;;;;6.12;100.00;94775.69;5066142;28;20229;-73
2023/03/09 05:37:37;;;;;;;1.80;0.70;;;;;;;6.17;100.00;94790.81;5019302;28;21407;-71
2023/03/09 05:40:06;;;;;;;0.87;0.60;;;;;;;6.17;100.00;94794.25;5071143;28;20286;-73
2023/03/09 05:42:34;;;;;;;0.77;0.60;;;;;;;6.22;100.00;94798.84;5068341;28;20282;-71
2023/03/09 05:45:03;;;;;;;0.90;0.90;;;;;;;6.23;100.00;94800.47;5069517;28;20624;-71
2023/03/09 05:47:30;;;;;;;1.23;1.23;;;;;;;6.22;100.00;94814.63;5055092;28;21025;-71
2023/03/09 05:49:58;;;;;;;0.70;0.70;;;;;;;6.20;100.00;94824.56;5073160;28;20190;-71
2023/03/09 05:52:26;;;;;;;0.67;0.67;;;;;;;6.16;100.00;94824.19;5065403;28;20855;-71
2023/03/09 05:54:55;;;;;;;0.60;0.60;;;;;;;6.22;100.00;94830.41;5036465;28;20203;-70
2023/03/09 05:57:23;;;;;;;0.80;0.63;;;;;;;6.28;100.00;94853.25;5067880;28;20195;-71
2023/03/09 05:59:51;;;;;;;0.87;0.87;;;;;;;6.34;100.00;94862.91;5062111;28;20232;-69
2023/03/09 06:02:19;;;;;;;0.80;0.80;;;;;;;6.28;100.00;94866.41;5037574;28;20882;-71
2023/03/09 06:04:50;;;;;;;1.37;1.10;;;;;;;6.30;100.00;94866.16;5047876;28;20227;-73
2023/03/09 06:07:18;;;;;;;1.00;1.00;;;;;;;6.35;100.00;94877.66;5034268;28;21434;-70
2023/03/09 06:09:46;;;;;;;0.70;0.70;;;;;;;6.36;100.00;94874.00;5012997;28;20213;-68
2023/03/09 06:12:17;;;;;;;0.93;0.93;;;;;;;6.31;100.00;94886.19;5066563;28;20198;-71
2023/03/09 06:14:48;;;;;;;0.87;0.87;;;;;;;6.34;100.00;94894.47;5067456;28;20289;-71
2023/03/09 06:17:15;;;;;;;1.50;1.40;;;;;;;6.32;100.00;94909.66;5060726;28;20221;-71
2023/03/09 06:19:43;;;;;;;0.70;0.70;;;;;;;6.33;100.00;94916.53;5054896;28;20233;-71
2023/03/09 06:22:11;;;;;;;1.00;1.00;;;;;;;6.33;100.00;94932.31;5044116;28;20210;-71
2023/03/09 06:24:38;;;;;;;0.70;0.70;;;;;;;6.34;100.00;94933.09;5003926;28;20646;-71
2023/03/09 06:27:06;;;;;;;0.97;0.97;;;;;;;6.33;100.00;94947.25;5069443;28;20218;-71
2023/03/09 06:29:35;;;;;;;0.60;0.60;;;;;;;6.29;100.00;94933.75;5055909;28;20625;-70
2023/03/09 06:32:03;;;;;;;1.43;1.10;;;;;;;6.29;100.00;94962.69;5068820;28;20294;-71
2023/03/09 06:34:31;;;;;;;0.80;0.80;;;;;;;6.33;100.00;94965.69;5063080;28;20206;-71
2023/03/09 06:36:58;;;;;;;0.97;0.97;;;;;;;6.41;100.00;94962.00;5036247;28;20318;-71
2023/03/09 06:39:26;;;;;;;1.30;1.13;;;;;;;6.37;100.00;94958.97;5054277;28;20233;-70
2023/03/09 06:41:54;;;;;;;1.07;1.07;;;;;;;6.41;100.00;94977.78;5017791;28;20202;-69
2023/03/09 06:44:22;;;;;;;1.07;1.07;;;;;;;6.48;100.00;94982.00;5069611;28;20700;-71
2023/03/09 06:46:51;;;;;;;1.10;1.00;;;;;;;6.52;100.00;95000.75;5068848;28;20521;-71
2023/03/09 06:49:19;;;;;;;1.50;1.17;;;;;;;6.55;100.00;95000.34;5068313;28;20494;-72
2023/03/09 06:51:46;;;;;;;1.03;1.03;;;;;;;6.47;100.00;95006.69;5050732;28;20202;-72
2023/03/09 06:54:14;;;;;;;1.70;1.60;;;;;;;6.55;100.00;95023.22;5055068;28;20427;-69
2023/03/09 06:56:42;;;;;;;1.10;1.10;;;;;;;6.57;100.00;95032.50;5010694;28;20326;-72
2023/03/09 06:59:09;;;;;;;1.07;0.70;;;;;;;6.60;100.00;95032.09;5066140;28;20214;-71
2023/03/09 07:01:37;;;;;;;0.73;0.73;;;;;;;6.58;100.00;95044.66;5066924;28;20226;-70
2023/03/09 07:04:07;;;;;;;0.73;0.73;;;;;;;6.57;100.00;95050.13;5062571;28;20324;-71
2023/03/09 07:06:34;;;;;;;1.47;1.37;;;;;;;6.58;100.00;95070.16;5053618;28;20460;-71
2023/03/09 07:09:02;;;;;;;2.00;1.60;;;;;;;6.54;100.00;95061.88;5043445;28;20207;-71
2023/03/09 07:11:31;;;;;;;0.70;0.70;;;;;;;6.59;100.00;95074.41;5018486;28;20214;-70
2023/03/09 07:13:59;;;;;;;1.27;1.27;;;;;;;6.66;100.00;95075.19;5057910;28;20205;-72
2023/03/09 07:16:27;;;;;;;0.93;0.93;;;;;;;6.65;100.00;95078.81;5070444;28;20259;-69
2023/03/09 07:18:55;;;;;;;1.53;0.87;;;;;;;6.60;100.00;95084.72;5047029;28;20226;-70
2023/03/09 07:21:24;;;;;;;0.70;0.70;;;;;;;6.64;100.00;95093.81;5050113;28;20202;-69
2023/03/09 07:23:52;;;;;;;1.30;1.20;;;;;;;6.63;100.00;95101.91;5055417;28;20202;-70
2023/03/09 07:26:20;;;;;;;1.10;1.10;;;;;;;6.64;100.00;95117.50;5058037;28;20317;-69
2023/03/09 07:28:48;;;;;;;0.80;0.80;;;;;;;6.61;100.00;95111.84;5023770;28;20297;-70
2023/03/09 07:31:16;;;;;;;2.83;1.30;;;;;;;6.67;100.00;95121.53;5062861;28;20764;-70
2023/03/09 07:33:43;;;;;;;1.20;1.10;;;;;;;6.68;100.00;95127.59;5051908;28;20780;-69
2023/03/09 07:36:11;;;;;;;1.40;1.17;;;;;;;6.76;100.00;95140.53;5048204;28;20234;-70
2023/03/09 07:38:40;;;;;;;1.20;0.97;;;;;;;6.79;100.00;95145.38;5068683;28;20206;-70
2023/03/09 07:41:08;;;;;;;1.27;1.20;;;;;;;6.83;100.00;95149.19;5046033;28;20613;-69
2023/03/09 07:43:37;;;;;;;1.60;1.50;;;;;;;6.86;100.00;95146.13;5025506;28;20380;-70
2023/03/09 07:46:06;;;;;;;1.67;1.50;;;;;;;6.91;100.00;95158.66;5063354;28;20331;-71
2023/03/09 07:48:37;;;;;;;1.30;1.30;;;;;;;6.95;100.00;95176.44;5063361;28;20234;-70
2023/03/09 07:51:06;;;;;;;1.63;1.40;;;;;;;7.05;100.00;95165.47;5045735;28;20195;-69
2023/03/09 07:53:34;;;;;;;1.40;1.30;;;;;;;7.08;100.00;95175.56;5049881;28;20466;-67
2023/03/09 07:56:04;;;;;;;1.23;1.10;;;;;;;7.08;100.00;95185.31;5047891;28;20225;-67
2023/03/09 07:58:32;;;;;;;1.40;1.30;;;;;;;7.09;100.00;95193.00;5018666;28;20531;-68
2023/03/09 08:01:00;;;;;;;1.77;1.37;;;;;;;7.12;100.00;95202.31;5067782;28;20227;-68
2023/03/09 08:03:29;;;;;;;1.37;1.20;;;;;;;7.16;100.00;95205.31;5064040;28;20515;-70
2023/03/09 08:05:56;;;;;;;2.00;1.80;;;;;;;7.18;100.00;95209.38;5053121;28;20573;-68
2023/03/09 08:08:25;;;;;;;1.93;1.83;;;;;;;7.25;100.00;95206.69;5051423;28;20221;-69
2023/03/09 08:10:53;;;;;;;1.67;1.23;;;;;;;7.30;100.00;95216.59;5049318;28;20202;-68
2023/03/09 08:13:23;;;;;;;1.90;1.10;;;;;;;7.35;100.00;95222.03;5022033;28;20287;-70
2023/03/09 08:15:51;;;;;;;1.73;1.40;;;;;;;7.41;100.00;95223.84;5062446;28;20598;-68
2023/03/09 08:18:19;;;;;;;1.40;1.40;;;;;;;7.55;100.00;95237.72;5070946;28;20224;-69
2023/03/09 08:20:47;;;;;;;3.00;1.40;;;;;;;7.67;100.00;95233.38;5054180;28;20234;-69
2023/03/09 08:23:15;;;;;;;1.33;1.23;;;;;;;7.67;100.00;95235.22;5050511;28;20206;-69
2023/03/09 08:25:43;;;;;;;1.73;1.30;;;;;;;7.69;100.00;95238.44;5061321;28;20435;-69
2023/03/09 08:28:13;;;;;;;2.23;1.83;;;;;;;7.76;100.00;95236.56;5036663;28;21081;-70
2023/03/09 08:30:42;;;;;;;2.27;1.07;;;;;;;7.96;100.00;95243.53;5041948;28;20414;-69
2023/03/09 08:33:10;;;;;;;1.43;1.33;;;;;;;8.02;100.00;95253.19;5069737;28;20220;-69
2023/03/09 08:35:38;;;;;;;2.80;1.80;;;;;;;8.00;100.00;95259.72;5052814;28;21008;-69
2023/03/09 08:38:05;;;;;;;4.63;3.63;;;;;;;8.10;100.00;95276.66;5055282;28;20198;-68
2023/03/09 08:40:33;;;;;;;3.67;1.97;;;;;;;8.11;100.00;95251.91;5067160;28;20324;-69
2023/03/09 08:43:00;;;;;;;3.67;1.90;;;;;;;8.08;100.00;95262.88;5052929;28;20221;-69
2023/03/09 08:45:28;;;;;;;2.03;1.43;;;;;;;8.06;100.00;95272.06;5017523;28;20233;-69
2023/03/09 08:47:57;;;;;;;2.30;1.90;;;;;;;7.98;100.00;95273.13;5071359;28;20198;-68
2023/03/09 08:50:25;;;;;;;3.33;1.73;;;;;;;8.06;100.00;95282.59;5052222;28;20202;-70
2023/03/09 08:52:53;;;;;;;3.80;1.67;;;;;;;8.11;100.00;95280.91;5066404;28;20708;-68
2023/03/09 08:55:21;;;;;;;3.23;1.93;;;;;;;8.12;100.00;95279.09;5051185;28;20226;-69
2023/03/09 08:57:48;;;;;;;2.30;1.90;;;;;;;8.19;100.00;95285.13;5056984;28;20261;-68
2023/03/09 09:00:17;;;;;;;4.37;2.00;;;;;;;8.31;100.00;95301.06;5017850;28;20226;-70
2023/03/09 09:02:45;;;;;;;4.23;2.27;;;;;;;8.31;100.00;95294.97;5072578;28;20289;-69
2023/03/09 09:05:14;;;;;;;6.67;1.97;;;;;;;8.39;100.00;95319.25;5069576;28;20610;-70
2023/03/09 09:07:43;;;;;;;2.57;2.37;;;;;;;8.07;100.00;95318.50;5056226;28;20309;-68
2023/03/09 09:10:14;;;;;;;2.77;2.03;;;;;;;7.90;100.00;95316.38;5053290;28;21599;-69
2023/03/09 09:13:01;;;;;;;5.13;1.93;;;;;;;7.60;100.00;95345.16;5071357;28;20206;-68
2023/03/09 09:15:29;;;;;;;3.03;1.90;;;;;;;7.43;100.00;95335.09;5023829;28;20226;-68
2023/03/09 09:17:57;;;;;;;3.90;2.40;;;;;;;7.32;100.00;95357.63;5073744;28;20212;-68
2023/03/09 09:20:26;;;;;;;3.37;2.10;;;;;;;7.15;100.00;95338.84;5062359;28;20233;-68
2023/03/09 09:22:53;;;;;;;5.07;2.03;;;;;;;7.12;100.00;95362.97;5065918;28;20198;-68
2023/03/09 09:25:21;;;;;;;6.17;2.97;;;;;;;7.09;100.00;95366.00;5058896;28;20254;-69
2023/03/09 09:27:50;;;;;;;3.70;2.37;;;;;;;7.13;100.00;95372.47;5075073;28;20733;-68
2023/03/09 09:30:18;;;;;;;3.97;2.03;;;;;;;7.19;100.00;95371.66;5020832;28;20230;-69
2023/03/09 09:32:46;;;;;;;3.23;2.40;;;;;;;7.23;100.00;95377.31;5054771;28;20214;-68
2023/03/09 09:35:14;;;;;;;3.57;1.77;;;;;;;7.30;100.00;95358.84;5073382;28;20571;-69
2023/03/09 09:37:43;;;;;;;6.10;2.67;;;;;;;7.43;100.00;95371.97;5056072;28;20202;-69
2023/03/09 09:40:13;;;;;;;4.10;2.20;;;;;;;7.52;100.00;95372.53;5075511;28;20711;-70
2023/03/09 09:42:43;;;;;;;4.77;2.07;;;;;;;7.73;100.00;95379.34;5061891;28;20213;-68
2023/03/09 09:45:30;;;;;;;7.83;2.90;;;;;;;7.88;100.00;95376.44;5045469;28;20226;-69
2023/03/09 09:48:01;;;;;;;7.23;3.07;;;;;;;7.98;100.00;95375.97;5072437;28;20337;-68
2023/03/09 09:50:37;;;;;;;4.40;2.50;;;;;;;7.96;100.00;95380.66;5075128;28;20194;-69
2023/03/09 09:53:11;;;;;;;7.33;3.03;;;;;;;8.19;100.00;95374.03;5057637;28;20213;-69
2023/03/09 09:55:40;;;;;;;9.93;2.57;;;;;;;8.11;100.00;95373.25;5051788;28;20941;-68
2023/03/09 09:58:14;;;;;;;7.73;2.87;;;;;;;8.15;100.00;95378.13;5071800;28;20204;-68
2023/03/09 10:00:45;;;;;;;3.60;2.23;;;;;;;8.22;100.00;95369.13;5047767;28;20343;-68
2023/03/09 10:03:19;;;;;;;5.27;2.07;;;;;;;8.40;100.00;95381.56;5032224;28;20210;-69
2023/03/09 10:05:50;;;;;;;4.47;2.70;;;;;;;8.56;100.00;95365.44;5076518;28;20217;-68
2023/03/09 10:08:25;;;;;;;8.07;3.43;;;;;;;8.58;100.00;95373.97;5044129;28;20213;-69
2023/03/09 10:10:53;;;;;;;14.03;7.03;;;;;;;8.54;100.00;95370.97;5071342;28;20610;-68
2023/03/09 10:13:28;;;;;;;6.47;3.00;;;;;;;8.68;100.00;95371.63;5050869;28;20214;-69
2023/03/09 10:15:58;;;;;;;5.30;2.40;;;;;;;8.73;100.00;95371.81;5051361;28;20283;-69
2023/03/09 10:18:39;;;;;;;3.90;2.27;;;;;;;8.83;100.00;95369.50;5037423;28;20596;-68
2023/03/09 10:21:14;;;;;;;5.83;2.47;;;;;;;8.81;100.00;95376.81;5071091;28;20214;-68
2023/03/09 10:23:44;;;;;;;3.03;2.23;;;;;;;8.87;100.00;95383.03;5049405;28;21176;-68
2023/03/09 10:26:23;;;;;;;3.63;1.80;;;;;;;8.86;100.00;95370.06;5068222;28;20218;-69
2023/03/09 10:28:52;;;;;;;4.20;2.37;;;;;;;8.77;100.00;95385.38;5069464;28;20213;-68
2023/03/09 10:31:26;;;;;;;5.67;2.80;;;;;;;8.80;100.00;95377.84;5019219;28;20740;-68
2023/03/09 10:33:59;;;;;;;5.07;2.37;;;;;;;8.93;100.00;95395.41;5066017;28;20389;-68
2023/03/09 10:36:30;;;;;;;7.43;2.40;;;;;;;8.92;100.00;95395.63;5061693;28;20222;-69
2023/03/09 10:39:05;;;;;;;3.00;1.83;;;;;;;8.96;100.00;95394.16;5066517;28;20198;-69
2023/03/09 10:41:33;;;;;;;2.43;1.90;;;;;;;8.97;100.00;95407.16;5044167;28;20544;-70
2023/03/09 10:44:00;;;;;;;3.50;2.07;;;;;;;9.28;100.00;95407.25;5044358;28;20213;-69
2023/03/09 10:46:31;;;;;;;5.10;2.20;;;;;;;9.37;100.00;95410.41;5024475;28;20744;-69
2023/03/09 10:49:13;;;;;;;7.20;2.77;;;;;;;9.44;100.00;95410.34;5067127;28;20210;-70
2023/03/09 10:51:42;;;;;;;2.67;2.13;;;;;;;9.32;100.00;95413.72;5065784;28;20193;-69
2023/03/09 10:54:22;;;;;;;4.83;2.23;;;;;;;9.41;100.00;95414.25;5069952;28;20198;-70
2023/03/09 10:56:51;;;;;;;4.13;2.23;;;;;;;9.36;100.00;95414.09;5066938;28;20221;-70
2023/03/09 10:59:21;;;;;;;5.73;2.33;;;;;;;9.47;100.00;95426.56;5051874;28;20252;-70
2023/03/09 11:01:51;;;;;;;3.93;1.93;;;;;;;9.27;100.00;95417.00;5073769;28;20222;-69
2023/03/09 11:04:31;;;;;;;4.20;1.83;;;;;;;9.36;100.00;95427.31;5023446;28;21812;-69
2023/03/09 11:06:59;;;;;;;4.20;2.30;;;;;;;9.54;100.00;95421.22;5067650;28;20222;-69
2023/03/09 11:09:32;;;;;;;3.87;2.30;;;;;;;9.73;100.00;95434.41;5064236;28;20210;-70
2023/03/09 11:12:24;;;;;;;8.60;2.17;;;;;;;9.67;100.00;95434.28;5069819;28;20190;-69
2023/03/09 11:14:54;;;;;;;2.80;2.50;;;;;;;9.87;100.00;95432.44;5050106;28;20191;-70
2023/03/09 11:17:34;;;;;;;2.70;2.50;;;;;;;9.64;100.00;95439.19;5062331;28;20636;-71
2023/03/09 11:20:29;;;;;;;4.20;2.20;;;;;;;9.03;100.00;95439.78;5026393;28;20206;-68
2023/03/09 11:23:04;;;;;;;7.63;5.00;;;;;;;8.88;100.00;95455.19;5061874;28;20217;-69
2023/03/09 11:25:41;;;;;;;6.67;2.50;;;;;;;8.62;100.00;95455.16;5057005;28;20209;-69
2023/03/09 11:28:17;;;;;;;3.90;2.47;;;;;;;8.60;100.00;95453.75;5051736;28;20575;-70
2023/03/09 11:30:46;;;;;;;4.43;2.13;;;;;;;8.79;100.00;95459.91;5066792;28;20281;-69
2023/03/09 11:33:19;;;;;;;2.60;2.37;;;;;;;8.98;100.00;95458.13;5047404;28;20662;-69
2023/03/09 11:35:51;;;;;;;3.13;2.13;;;;;;;9.19;100.00;95464.84;5065325;28;20765;-70
2023/03/09 11:38:20;;;;;;;4.27;1.90;;;;;;;9.53;100.00;95457.41;5070131;28;20802;-71
2023/03/09 11:40:51;;;;;;;4.57;2.00;;;;;;;9.72;100.00;95452.13;5075933;28;20218;-69
2023/03/09 11:43:22;;;;;;;5.87;2.10;;;;;;;9.64;100.00;95444.47;5055935;28;20269;-69